createdAt,value
2017-11-21T00:01:31.014Z,6.00
2017-11-21T00:03:59.279Z,6.00
2017-11-21T00:06:26.794Z,6.00
2017-11-21T00:08:54.289Z,6.10
2017-11-21T00:11:21.779Z,6.10
2017-11-21T00:13:49.292Z,6.10
2017-11-21T00:16:16.798Z,6.10
2017-11-21T00:18:44.286Z,6.20
2017-11-21T00:21:11.779Z,6.20
2017-11-21T00:23:39.298Z,6.20
2017-11-21T00:26:06.787Z,6.20
2017-11-21T00:28:34.304Z,6.20
2017-11-21T00:31:01.804Z,6.20
2017-11-21T00:33:29.306Z,6.30
2017-11-21T00:35:56.806Z,6.30
2017-11-21T00:38:24.327Z,6.30
2017-11-21T00:40:51.820Z,6.40
2017-11-21T00:43:20.099Z,6.40
2017-11-21T00:45:47.587Z,6.40
2017-11-21T00:48:15.074Z,6.40
2017-11-21T00:50:42.578Z,6.50
2017-11-21T00:53:10.066Z,6.50
2017-11-21T00:55:38.354Z,6.50
2017-11-21T00:58:06.606Z,6.50
2017-11-21T01:00:34.126Z,6.50
2017-11-21T01:03:01.616Z,6.60
2017-11-21T01:05:29.160Z,6.60
2017-11-21T01:07:56.662Z,6.60
2017-11-21T01:10:24.911Z,6.60
2017-11-21T01:12:52.414Z,6.60
2017-11-21T01:15:19.924Z,6.60
2017-11-21T01:17:47.426Z,6.60
2017-11-21T01:20:14.914Z,6.60
2017-11-21T01:22:42.418Z,6.60
2017-11-21T01:25:10.674Z,6.70
2017-11-21T01:27:38.155Z,6.70
2017-11-21T01:30:06.434Z,6.70
2017-11-21T01:32:34.707Z,6.70
2017-11-21T01:35:02.985Z,6.80
2017-11-21T01:37:31.252Z,6.90
2017-11-21T01:39:59.541Z,6.90
2017-11-21T01:42:27.821Z,6.90
2017-11-21T01:44:56.079Z,6.90
2017-11-21T01:47:23.596Z,6.90
2017-11-21T01:49:51.088Z,6.90
2017-11-21T01:52:19.373Z,6.90
2017-11-21T01:54:46.874Z,6.90
2017-11-21T01:57:14.393Z,6.90
2017-11-21T01:59:41.904Z,6.90
2017-11-21T02:02:09.449Z,6.90
2017-11-21T02:04:36.955Z,7.00
2017-11-21T02:07:04.480Z,7.00
2017-11-21T02:09:31.993Z,7.00
2017-11-21T02:12:00.265Z,7.00
2017-11-21T02:14:27.784Z,7.00
2017-11-21T02:16:55.284Z,7.00
2017-11-21T02:19:23.578Z,7.00
2017-11-21T02:21:51.092Z,6.90
2017-11-21T02:24:18.613Z,6.90
2017-11-21T02:26:46.164Z,7.00
2017-11-21T02:29:13.664Z,7.00
2017-11-21T02:31:41.196Z,7.00
2017-11-21T02:34:08.717Z,7.00
2017-11-21T02:36:37.002Z,7.00
2017-11-21T02:39:04.503Z,7.00
2017-11-21T02:41:32.007Z,7.10
2017-11-21T02:44:00.263Z,7.10
2017-11-21T02:46:27.747Z,7.10
2017-11-21T02:48:56.023Z,7.10
2017-11-21T02:51:24.292Z,7.10
2017-11-21T02:53:52.569Z,7.20
2017-11-21T02:56:20.827Z,7.20
2017-11-21T02:58:48.336Z,7.20
2017-11-21T03:01:15.824Z,7.20
2017-11-21T03:03:43.326Z,7.20
2017-11-21T03:06:10.842Z,7.30
2017-11-21T03:08:38.335Z,7.20
2017-11-21T03:11:06.611Z,7.30
2017-11-21T03:13:34.871Z,7.30
2017-11-21T03:16:02.383Z,7.20
2017-11-21T03:18:29.875Z,7.30
2017-11-21T03:21:09.099Z,7.30
2017-11-21T03:23:48.440Z,7.30
2017-11-21T03:26:22.826Z,7.30
2017-11-21T03:28:50.332Z,7.40
2017-11-21T03:31:17.828Z,7.40
2017-11-21T03:33:45.345Z,7.40
2017-11-21T03:36:12.834Z,7.40
2017-11-21T03:38:41.115Z,7.40
2017-11-21T03:41:09.376Z,7.40
2017-11-21T03:43:37.676Z,7.50
2017-11-21T03:46:05.170Z,7.40
2017-11-21T03:48:32.675Z,7.50
2017-11-21T03:51:00.931Z,7.50
2017-11-21T03:53:29.212Z,7.50
2017-11-21T03:55:56.713Z,7.50
2017-11-21T03:58:24.226Z,7.50
2017-11-21T04:00:54.568Z,7.50
2017-11-21T04:03:22.060Z,7.50
2017-11-21T04:05:49.580Z,7.50
2017-11-21T04:08:17.840Z,7.60
2017-11-21T04:10:45.364Z,7.60
2017-11-21T04:13:12.856Z,7.60
2017-11-21T04:15:40.371Z,7.60
2017-11-21T04:18:07.877Z,7.60
2017-11-21T04:20:36.141Z,7.50
2017-11-21T04:23:03.658Z,7.50
2017-11-21T04:25:31.155Z,7.50
2017-11-21T04:27:58.674Z,7.40
2017-11-21T04:30:26.168Z,7.40
2017-11-21T04:32:53.699Z,7.40
2017-11-21T04:35:21.196Z,7.50
2017-11-21T04:37:48.688Z,7.50
2017-11-21T04:40:16.972Z,7.50
2017-11-21T04:42:44.471Z,7.50
2017-11-21T04:45:11.989Z,7.50
2017-11-21T04:47:39.483Z,7.50
2017-11-21T04:50:07.000Z,7.50
2017-11-21T04:52:34.495Z,7.60
2017-11-21T04:55:02.011Z,7.60
2017-11-21T04:57:30.271Z,7.60
2017-11-21T04:59:58.531Z,7.60
2017-11-21T05:02:26.048Z,7.60
2017-11-21T05:04:53.543Z,7.60
2017-11-21T05:07:21.059Z,7.60
2017-11-21T05:09:48.552Z,7.60
2017-11-21T05:12:16.063Z,7.60
2017-11-21T05:14:43.556Z,7.70
2017-11-21T05:17:11.047Z,7.70
2017-11-21T05:19:38.564Z,7.70
2017-11-21T05:22:06.056Z,7.70
2017-11-21T05:24:33.577Z,7.70
2017-11-21T05:27:01.076Z,7.70
2017-11-21T05:29:28.596Z,7.70
2017-11-21T05:31:56.092Z,7.70
2017-11-21T05:34:23.603Z,7.80
2017-11-21T05:36:51.127Z,7.80
2017-11-21T05:39:19.387Z,7.80
2017-11-21T05:41:46.899Z,7.80
2017-11-21T05:44:14.387Z,7.80
2017-11-21T05:46:41.905Z,7.80
2017-11-21T05:49:09.395Z,7.80
2017-11-21T05:51:36.911Z,7.80
2017-11-21T05:54:04.403Z,7.80
2017-11-21T05:56:31.900Z,7.80
2017-11-21T05:58:59.419Z,7.80
2017-11-21T06:01:26.911Z,7.80
2017-11-21T06:03:54.428Z,7.80
2017-11-21T06:06:21.919Z,7.80
2017-11-21T06:08:49.436Z,7.80
2017-11-21T06:11:16.927Z,7.80
2017-11-21T06:13:44.439Z,7.80
2017-11-21T06:16:11.954Z,7.80
2017-11-21T06:18:39.452Z,7.80
2017-11-21T06:21:06.967Z,7.80
2017-11-21T06:23:34.455Z,7.80
2017-11-21T06:26:01.972Z,7.80
2017-11-21T06:28:29.463Z,7.80
2017-11-21T06:30:56.982Z,7.80
2017-11-21T06:33:24.474Z,7.70
2017-11-21T06:35:52.762Z,7.70
2017-11-21T06:38:21.024Z,7.70
2017-11-21T06:40:48.544Z,7.70
2017-11-21T06:43:16.036Z,7.70
2017-11-21T06:45:43.543Z,7.70
2017-11-21T06:48:11.063Z,7.70
2017-11-21T06:50:38.560Z,7.70
2017-11-21T06:53:06.072Z,7.70
2017-11-21T06:55:33.564Z,7.70
2017-11-21T06:58:01.081Z,7.70
2017-11-21T07:00:28.572Z,7.70
2017-11-21T07:02:56.856Z,7.80
2017-11-21T07:05:24.375Z,7.70
2017-11-21T07:07:51.899Z,7.80
2017-11-21T07:10:19.387Z,7.70
2017-11-21T07:12:46.876Z,7.80
2017-11-21T07:15:15.165Z,7.70
2017-11-21T07:17:42.655Z,7.70
2017-11-21T07:20:10.171Z,7.70
2017-11-21T07:22:38.435Z,7.80
2017-11-21T07:25:05.971Z,7.80
2017-11-21T07:27:33.468Z,7.80
2017-11-21T07:30:00.984Z,7.80
2017-11-21T07:32:28.487Z,7.70
2017-11-21T07:34:56.747Z,7.80
2017-11-21T07:37:25.023Z,7.80
2017-11-21T07:39:53.279Z,7.80
2017-11-21T07:42:20.797Z,7.70
2017-11-21T07:44:48.287Z,7.80
2017-11-21T07:47:15.807Z,7.80
2017-11-21T07:49:43.308Z,7.70
2017-11-21T07:52:10.803Z,7.70
2017-11-21T07:54:39.085Z,7.70
2017-11-21T07:57:07.344Z,7.70
2017-11-21T07:59:35.627Z,7.70
2017-11-21T08:02:04.024Z,7.80
2017-11-21T08:04:31.536Z,7.70
2017-11-21T08:06:59.024Z,7.80
2017-11-21T08:09:27.291Z,7.80
2017-11-21T08:11:55.575Z,7.80
2017-11-21T08:14:23.832Z,7.80
2017-11-21T08:16:51.341Z,7.80
2017-11-21T08:19:18.836Z,7.80
2017-11-21T08:21:46.364Z,7.80
2017-11-21T08:24:13.856Z,7.80
2017-11-21T08:26:41.376Z,7.80
2017-11-21T08:29:08.904Z,7.80
2017-11-21T08:31:37.188Z,7.80
2017-11-21T08:34:04.679Z,7.80
2017-11-21T08:36:32.176Z,7.80
2017-11-21T08:38:59.692Z,7.80
2017-11-21T08:41:27.192Z,7.80
2017-11-21T08:43:54.713Z,7.80
2017-11-21T08:46:22.208Z,7.80
2017-11-21T08:48:49.728Z,7.80
2017-11-21T08:51:17.237Z,7.80
2017-11-21T08:53:45.529Z,7.80
2017-11-21T08:56:13.032Z,7.70
2017-11-21T08:58:40.548Z,7.80
2017-11-21T09:01:08.828Z,7.80
2017-11-21T09:03:36.340Z,7.70
2017-11-21T09:06:03.851Z,7.70
2017-11-21T09:08:31.371Z,7.70
2017-11-21T09:10:58.886Z,7.70
2017-11-21T09:13:26.380Z,7.70
2017-11-21T09:15:53.900Z,7.80
2017-11-21T09:18:21.391Z,7.80
2017-11-21T09:20:48.903Z,7.80
2017-11-21T09:23:16.392Z,7.80
2017-11-21T09:25:43.887Z,7.80
2017-11-21T09:28:12.167Z,7.80
2017-11-21T09:30:40.423Z,7.80
2017-11-21T09:33:07.935Z,7.80
2017-11-21T09:35:35.433Z,7.80
2017-11-21T09:38:02.948Z,7.80
2017-11-21T09:40:30.440Z,7.80
2017-11-21T09:42:57.955Z,7.80
2017-11-21T09:45:25.451Z,7.90
2017-11-21T09:47:52.963Z,7.90
2017-11-21T09:50:21.223Z,7.90
2017-11-21T09:52:48.712Z,7.90
2017-11-21T09:55:16.224Z,7.90
2017-11-21T09:57:43.715Z,7.90
2017-11-21T10:00:11.995Z,7.90
2017-11-21T10:02:39.496Z,7.80
2017-11-21T10:05:07.012Z,7.90
2017-11-21T10:07:34.508Z,7.90
2017-11-21T10:10:02.029Z,7.90
2017-11-21T10:12:29.523Z,7.90
2017-11-21T10:14:57.051Z,7.90
2017-11-21T10:17:24.547Z,7.90
2017-11-21T10:19:52.043Z,7.90
2017-11-21T10:22:20.323Z,7.90
2017-11-21T10:24:48.584Z,7.90
2017-11-21T10:27:16.097Z,7.90
2017-11-21T10:29:43.591Z,7.90
2017-11-21T10:32:11.103Z,7.90
2017-11-21T10:34:38.596Z,7.90
2017-11-21T10:37:06.112Z,8.00
2017-11-21T10:39:33.611Z,8.00
2017-11-21T10:42:01.130Z,8.00
2017-11-21T10:44:28.629Z,8.00
2017-11-21T10:46:56.119Z,8.00
2017-11-21T10:49:23.661Z,8.00
2017-11-21T10:51:51.155Z,8.10
2017-11-21T10:54:18.673Z,8.00
2017-11-21T10:56:46.176Z,8.10
2017-11-21T10:59:13.699Z,8.20
2017-11-21T11:01:41.264Z,8.30
2017-11-21T11:04:08.799Z,8.40
2017-11-21T11:06:36.317Z,8.30
2017-11-21T11:09:03.850Z,8.30
2017-11-21T11:11:32.120Z,8.30
2017-11-21T11:13:59.620Z,8.30
2017-11-21T11:16:27.153Z,8.30
2017-11-21T11:18:55.449Z,8.40
2017-11-21T11:21:22.992Z,8.40
2017-11-21T11:23:50.502Z,8.30
2017-11-21T11:26:18.559Z,8.30
2017-11-21T11:28:46.072Z,8.40
2017-11-21T11:31:14.361Z,8.40
2017-11-21T11:33:41.886Z,8.40
2017-11-21T11:36:09.437Z,8.40
2017-11-21T11:38:36.945Z,8.40
2017-11-21T11:41:04.454Z,8.40
2017-11-21T11:43:32.672Z,8.40
2017-11-21T11:46:00.181Z,8.40
2017-11-21T11:48:27.711Z,8.40
2017-11-21T11:50:55.216Z,8.40
2017-11-21T11:53:22.749Z,8.40
2017-11-21T11:55:50.262Z,8.40
2017-11-21T11:58:17.788Z,8.40
2017-11-21T12:00:45.298Z,8.40
2017-11-21T12:03:12.797Z,8.40
2017-11-21T12:05:40.319Z,8.40
2017-11-21T12:08:07.859Z,8.40
2017-11-21T12:10:35.382Z,8.40
2017-11-21T12:13:02.894Z,8.40
2017-11-21T12:15:30.434Z,8.40
2017-11-21T12:17:57.936Z,8.40
2017-11-21T12:20:25.464Z,8.40
2017-11-21T12:22:52.981Z,8.40
2017-11-21T12:25:20.511Z,8.30
2017-11-21T12:27:48.036Z,8.30
2017-11-21T12:30:15.553Z,8.30
2017-11-21T12:32:43.885Z,8.30
2017-11-21T12:35:11.393Z,8.30
2017-11-21T12:37:38.917Z,8.30
2017-11-21T12:40:06.433Z,8.30
2017-11-21T12:42:34.721Z,8.30
2017-11-21T12:45:02.220Z,8.20
2017-11-21T12:47:29.758Z,8.30
2017-11-21T12:49:57.320Z,8.30
2017-11-21T12:52:25.085Z,8.30
2017-11-21T12:54:52.600Z,8.20
2017-11-21T12:57:20.872Z,8.20
2017-11-21T12:59:48.426Z,8.20
2017-11-21T13:02:15.937Z,8.20
2017-11-21T13:04:43.474Z,8.20
2017-11-21T13:07:10.994Z,8.20
2017-11-21T13:09:38.561Z,8.20
2017-11-21T13:12:06.849Z,8.20
2017-11-21T13:14:34.380Z,8.20
2017-11-21T13:17:01.900Z,8.10
2017-11-21T13:19:29.408Z,8.20
2017-11-21T13:21:56.950Z,8.20
2017-11-21T13:24:24.461Z,8.20
2017-11-21T13:26:51.994Z,8.20
2017-11-21T13:29:19.517Z,8.20
2017-11-21T13:31:47.045Z,8.20
2017-11-21T13:34:14.552Z,8.20
2017-11-21T13:36:42.093Z,8.10
2017-11-21T13:39:09.614Z,8.10
2017-11-21T13:41:37.126Z,8.10
2017-11-21T13:44:04.650Z,8.10
2017-11-21T13:46:32.168Z,8.10
2017-11-21T13:49:00.466Z,8.10
2017-11-21T13:51:27.975Z,8.10
2017-11-21T13:53:55.500Z,8.10
2017-11-21T13:56:23.001Z,8.10
2017-11-21T13:58:51.020Z,8.10
2017-11-21T14:01:18.556Z,8.20
2017-11-21T14:03:46.881Z,8.20
2017-11-21T14:06:14.422Z,8.20
2017-11-21T14:08:41.964Z,8.20
2017-11-21T14:11:09.496Z,8.20
2017-11-21T14:13:37.774Z,8.20
2017-11-21T14:16:06.073Z,8.20
2017-11-21T14:18:33.580Z,8.20
2017-11-21T14:21:01.080Z,8.30
2017-11-21T14:23:28.625Z,8.20
2017-11-21T14:25:56.141Z,8.20
2017-11-21T14:28:23.700Z,8.20
2017-11-21T14:30:51.206Z,8.20
2017-11-21T14:33:19.533Z,8.20
2017-11-21T14:35:47.066Z,8.20
2017-11-21T14:38:14.599Z,8.20
2017-11-21T14:40:42.117Z,8.20
2017-11-21T14:43:09.655Z,8.20
2017-11-21T14:45:37.167Z,8.20
2017-11-21T14:48:04.673Z,8.20
2017-11-21T14:50:32.224Z,8.20
2017-11-21T14:52:59.737Z,8.20
2017-11-21T14:55:27.276Z,8.20
2017-11-21T14:57:55.644Z,8.20
2017-11-21T15:00:23.164Z,8.20
2017-11-21T15:02:51.446Z,8.20
2017-11-21T15:05:18.987Z,8.20
2017-11-21T15:07:47.259Z,8.10
2017-11-21T15:10:14.773Z,8.10
2017-11-21T15:12:42.292Z,8.10
2017-11-21T15:15:10.560Z,8.00
2017-11-21T15:17:38.093Z,8.00
2017-11-21T15:20:05.597Z,8.00
2017-11-21T15:22:33.128Z,7.90
2017-11-21T15:25:01.412Z,7.90
2017-11-21T15:27:29.713Z,7.90
2017-11-21T15:29:57.237Z,7.90
2017-11-21T15:32:24.748Z,7.90
2017-11-21T15:34:52.284Z,7.90
2017-11-21T15:37:19.820Z,7.90
2017-11-21T15:39:48.117Z,7.90
2017-11-21T15:42:15.616Z,7.90
2017-11-21T15:44:43.148Z,7.90
2017-11-21T15:47:10.690Z,7.90
2017-11-21T15:49:38.218Z,7.80
2017-11-21T15:52:05.732Z,7.90
2017-11-21T15:54:33.584Z,7.90
2017-11-21T15:57:01.085Z,7.90
2017-11-21T15:59:28.601Z,7.90
2017-11-21T16:01:56.430Z,7.90
2017-11-21T16:04:23.949Z,7.90
2017-11-21T16:06:51.489Z,7.90
2017-11-21T16:09:19.009Z,7.90
2017-11-21T16:11:46.549Z,7.90
2017-11-21T16:14:14.067Z,7.90
2017-11-21T16:16:41.600Z,7.90
2017-11-21T16:19:09.881Z,7.90
2017-11-21T16:21:37.424Z,7.90
2017-11-21T16:24:06.393Z,8.00
2017-11-21T16:26:33.911Z,7.90
2017-11-21T16:29:01.462Z,8.00
2017-11-21T16:31:29.018Z,8.00
2017-11-21T16:33:56.545Z,8.00
2017-11-21T16:36:24.062Z,8.00
2017-11-21T16:38:51.595Z,8.00
2017-11-21T16:41:19.115Z,8.10
2017-11-21T16:43:46.653Z,8.10
2017-11-21T16:46:14.185Z,8.10
2017-11-21T16:48:41.706Z,8.10
2017-11-21T16:51:10.020Z,8.10
2017-11-21T16:53:37.541Z,8.10
2017-11-21T16:56:05.853Z,8.20
2017-11-21T16:58:33.368Z,8.10
2017-11-21T17:01:00.907Z,8.20
2017-11-21T17:03:28.428Z,8.20
2017-11-21T17:05:56.523Z,8.20
2017-11-21T17:08:24.048Z,8.20
2017-11-21T17:10:51.564Z,8.20
2017-11-21T17:13:19.096Z,8.20
2017-11-21T17:15:46.612Z,8.20
2017-11-21T17:18:14.907Z,8.20
2017-11-21T17:20:42.421Z,8.20
2017-11-21T17:23:09.943Z,8.20
2017-11-21T17:25:37.488Z,8.20
2017-11-21T17:28:05.050Z,8.20
2017-11-21T17:30:32.581Z,8.20
2017-11-21T17:33:00.858Z,8.30
2017-11-21T17:35:28.393Z,8.20
2017-11-21T17:37:55.908Z,8.30
2017-11-21T17:40:23.439Z,8.20
2017-11-21T17:42:51.717Z,8.30
2017-11-21T17:45:20.008Z,8.30
2017-11-21T17:47:47.559Z,8.20
2017-11-21T17:50:15.077Z,8.20
2017-11-21T17:52:42.616Z,8.20
2017-11-21T17:55:10.165Z,8.20
2017-11-21T17:57:37.711Z,8.20
2017-11-21T18:00:05.233Z,8.20
2017-11-21T18:02:32.785Z,8.20
2017-11-21T18:05:00.311Z,8.30
2017-11-21T18:07:27.852Z,8.20
2017-11-21T18:09:55.360Z,8.20
2017-11-21T18:12:22.881Z,8.30
2017-11-21T18:14:50.412Z,8.30
2017-11-21T18:17:17.932Z,8.30
2017-11-21T18:19:45.464Z,8.20
2017-11-21T18:22:13.815Z,8.20
2017-11-21T18:24:41.364Z,8.30
2017-11-21T18:27:08.893Z,8.30
2017-11-21T18:29:36.435Z,8.20
2017-11-21T18:32:03.946Z,8.30
2017-11-21T18:34:31.484Z,8.30
2017-11-21T18:36:59.780Z,8.20
2017-11-21T18:39:27.297Z,8.20
2017-11-21T18:41:54.833Z,8.20
2017-11-21T18:44:22.352Z,8.20
2017-11-21T18:46:49.973Z,8.20
2017-11-21T18:49:17.485Z,8.20
2017-11-21T18:51:45.024Z,8.20
2017-11-21T18:54:12.545Z,8.10
2017-11-21T18:56:41.602Z,8.10
2017-11-21T18:59:09.117Z,8.10
2017-11-21T19:01:36.677Z,8.00
2017-11-21T19:04:04.988Z,8.10
2017-11-21T19:06:32.496Z,8.00
2017-11-21T19:09:00.028Z,8.00
2017-11-21T19:11:27.553Z,8.00
2017-11-21T19:13:55.105Z,8.10
2017-11-21T19:16:23.380Z,8.10
2017-11-21T19:18:50.936Z,8.00
2017-11-21T19:21:19.232Z,8.10
2017-11-21T19:23:46.768Z,8.10
2017-11-21T19:26:14.285Z,8.10
2017-11-21T19:28:41.829Z,8.10
2017-11-21T19:31:09.337Z,8.10
2017-11-21T19:33:37.624Z,8.10
2017-11-21T19:36:05.161Z,8.10
2017-11-21T19:38:33.457Z,8.10
2017-11-21T19:41:01.771Z,8.10
2017-11-21T19:43:29.346Z,8.10
2017-11-21T19:45:56.878Z,8.10
2017-11-21T19:48:24.400Z,8.10
2017-11-21T19:50:52.707Z,8.10
2017-11-21T19:53:20.690Z,8.10
2017-11-21T19:55:48.199Z,8.10
2017-11-21T19:58:15.746Z,8.10
2017-11-21T20:00:43.257Z,8.10
2017-11-21T20:03:10.796Z,8.10
2017-11-21T20:05:39.093Z,8.00
2017-11-21T20:08:06.673Z,8.00
2017-11-21T20:10:34.179Z,8.10
2017-11-21T20:13:01.699Z,8.10
2017-11-21T20:15:29.233Z,8.10
2017-11-21T20:17:56.782Z,8.10
2017-11-21T20:20:24.324Z,8.00
2017-11-21T20:22:51.828Z,8.00
2017-11-21T20:25:19.359Z,8.00
2017-11-21T20:27:46.876Z,8.00
2017-11-21T20:30:14.408Z,8.00
2017-11-21T20:32:41.916Z,8.00
2017-11-21T20:35:09.444Z,8.00
2017-11-21T20:37:37.009Z,8.00
2017-11-21T20:40:05.288Z,8.00
2017-11-21T20:42:32.819Z,8.00
2017-11-21T20:45:00.340Z,8.00
2017-11-21T20:47:28.628Z,8.00
2017-11-21T20:49:56.149Z,8.00
2017-11-21T20:52:23.688Z,8.10
2017-11-21T20:54:51.228Z,8.00
2017-11-21T20:57:18.751Z,8.00
2017-11-21T20:59:47.064Z,8.00
2017-11-21T21:02:14.573Z,8.00
2017-11-21T21:04:42.876Z,8.00
2017-11-21T21:07:10.381Z,8.00
2017-11-21T21:09:37.916Z,8.10
2017-11-21T21:12:05.427Z,8.00
2017-11-21T21:14:32.961Z,8.00
2017-11-21T21:17:00.492Z,8.10
2017-11-21T21:19:27.996Z,8.00
2017-11-21T21:21:55.520Z,8.00
2017-11-21T21:24:23.044Z,8.00
2017-11-21T21:26:50.586Z,8.10
2017-11-21T21:29:18.869Z,8.10
2017-11-21T21:31:47.172Z,8.10
2017-11-21T21:34:14.684Z,8.00
2017-11-21T21:36:42.224Z,8.10
2017-11-21T21:39:09.730Z,8.00
2017-11-21T21:41:37.257Z,8.10
2017-11-21T21:44:04.777Z,8.10
2017-11-21T21:46:32.318Z,8.10
2017-11-21T21:48:59.832Z,8.10
2017-11-21T21:51:27.341Z,8.10
2017-11-21T21:53:54.875Z,8.10
2017-11-21T21:56:23.147Z,8.10
2017-11-21T21:58:51.889Z,8.10
2017-11-21T22:01:19.399Z,8.10
2017-11-21T22:03:46.920Z,8.10
2017-11-21T22:06:14.429Z,8.10
2017-11-21T22:08:41.946Z,8.10
2017-11-21T22:11:10.266Z,8.10
2017-11-21T22:13:37.780Z,8.10
2017-11-21T22:16:06.922Z,8.10
2017-11-21T22:18:34.461Z,8.10
2017-11-21T22:21:02.762Z,8.10
2017-11-21T22:23:30.295Z,8.10
2017-11-21T22:25:58.572Z,8.10
2017-11-21T22:28:26.878Z,8.10
2017-11-21T22:30:54.383Z,8.10
2017-11-21T22:33:21.921Z,8.10
2017-11-21T22:35:49.454Z,8.10
2017-11-21T22:38:16.997Z,8.10
2017-11-21T22:40:44.504Z,8.10
2017-11-21T22:43:12.046Z,8.10
2017-11-21T22:45:39.601Z,8.10
2017-11-21T22:48:07.115Z,8.10
2017-11-21T22:50:34.659Z,8.10
2017-11-21T22:53:04.739Z,8.10
2017-11-21T22:55:32.309Z,8.10
2017-11-21T22:57:59.816Z,8.10
2017-11-21T23:00:27.357Z,8.10
2017-11-21T23:02:54.884Z,8.10
2017-11-21T23:05:22.412Z,8.10
2017-11-21T23:07:50.617Z,8.10
2017-11-21T23:10:18.141Z,8.20
2017-11-21T23:12:45.678Z,8.20
2017-11-21T23:15:13.953Z,8.20
2017-11-21T23:17:41.491Z,8.20
2017-11-21T23:20:09.008Z,8.20
2017-11-21T23:22:36.512Z,8.20
2017-11-21T23:25:04.043Z,8.20
2017-11-21T23:27:31.535Z,8.20
2017-11-21T23:29:59.047Z,8.20
2017-11-21T23:32:26.546Z,8.20
2017-11-21T23:34:54.056Z,8.20
2017-11-21T23:37:21.552Z,8.20
2017-11-21T23:39:49.063Z,8.20
2017-11-21T23:42:16.562Z,8.20
2017-11-21T23:44:44.060Z,8.10
2017-11-21T23:47:12.343Z,8.00
2017-11-21T23:49:40.599Z,8.00
2017-11-21T23:52:08.883Z,7.90
2017-11-21T23:54:37.138Z,7.90
2017-11-21T23:57:04.655Z,7.90
2017-11-21T23:59:32.197Z,7.90
